map of BDH home
BDH - Airport
Location
City:  Bandar Lengeh, Hormozgan, Iran
ICAO:OIBL
IATA:BDH

Details
Type:Airport (Aerodrome, Airfield)
Latitude:2631'55"N (26.532000)
Longitude:5449'29"E (54.824847)
Datum:WGS 1984
Elevation:67 ft (20 m)
Variation:2.39E (WMM2015 magnetic declination)
0.05 annual change
Runways:1
Longest:8203 × 148 ft (2500 × 45 m), paved

Time
Time Zone:UTC+3:30 (DST+4:30)
Local Time:

Weather
METAR:OIBL 120600Z 09010KT CAVOK 24/16 Q1019

Related Locations
Nearby:
Farthest:GMR: 11790 mi / 18975 km
Mangareva [Totegegie], Gambier Islands, PF

Find:

   beyond  
but within

Other Information
Maps:
NOTAMs:
Links:
Sources:

  
  • flag of Iran
  

Sectional Chart

Flight Planning
at skyvector.com

Satellite Image

Google Maps Satellite view

 

Copyright © 2004-2018 Karl L. Swartz. All rights reserved.
The Great Circle Mapper name and logo are trademarks of the Great Circle Mapper.
All other trademarks mentioned herein belong to their respective owners.
Please see credits for attibutions and further copyright information.

  Follow gcmap on Facebook Follow gcmap on Twitter Follow gcmap on Google+ GCmap on LinkedIn

hCard Microformat

Geo Microformat